createdAt,value
2022-11-25T00:00:49.924Z,1.70
2022-11-25T00:03:17.859Z,1.80
2022-11-25T00:05:45.803Z,1.60
2022-11-25T00:08:15.021Z,1.73
2022-11-25T00:10:42.926Z,1.80
2022-11-25T00:13:10.819Z,1.80
2022-11-25T00:15:38.737Z,1.60
2022-11-25T00:18:06.648Z,1.60
2022-11-25T00:20:34.551Z,1.60
2022-11-25T00:23:02.565Z,1.70
2022-11-25T00:25:31.817Z,1.70
2022-11-25T00:27:59.736Z,1.83
2022-11-25T00:30:28.319Z,1.80
2022-11-25T00:32:56.346Z,1.70
2022-11-25T00:35:24.243Z,1.70
2022-11-25T00:37:52.144Z,1.77
2022-11-25T00:40:20.260Z,1.83
2022-11-25T00:43:06.994Z,1.80
2022-11-25T00:45:34.966Z,1.67
2022-11-25T00:48:02.904Z,1.97
2022-11-25T00:50:31.401Z,1.80
2022-11-25T00:52:59.971Z,2.07
2022-11-25T00:55:48.783Z,1.70
2022-11-25T00:58:18.038Z,1.80
2022-11-25T01:00:45.985Z,1.87
2022-11-25T01:03:13.918Z,1.80
2022-11-25T01:05:41.839Z,1.67
2022-11-25T01:08:09.747Z,1.57
2022-11-25T01:10:39.617Z,1.90
2022-11-25T01:13:07.546Z,1.70
2022-11-25T01:15:40.921Z,1.37
2022-11-25T01:18:10.390Z,1.60
2022-11-25T01:20:38.292Z,1.60
2022-11-25T01:23:06.178Z,1.63
2022-11-25T01:25:37.226Z,1.57
2022-11-25T01:28:05.621Z,1.77
2022-11-25T01:30:38.280Z,1.70
2022-11-25T01:33:10.400Z,1.60
2022-11-25T01:35:38.617Z,1.37
2022-11-25T01:38:06.478Z,1.50
2022-11-25T01:40:34.386Z,1.70
2022-11-25T01:43:02.258Z,1.67
2022-11-25T01:45:34.683Z,1.70
2022-11-25T01:48:05.507Z,1.50
2022-11-25T01:50:35.414Z,1.50
2022-11-25T01:53:03.338Z,1.70
2022-11-25T01:55:31.867Z,1.40
2022-11-25T01:58:02.222Z,1.90
2022-11-25T02:00:30.131Z,1.63
2022-11-25T02:02:58.048Z,1.50
2022-11-25T02:05:33.794Z,1.40
2022-11-25T02:08:03.353Z,1.40
2022-11-25T02:10:32.048Z,1.47
2022-11-25T02:12:59.957Z,1.50
2022-11-25T02:15:27.889Z,1.70
2022-11-25T02:17:55.896Z,1.40
2022-11-25T02:20:23.926Z,1.40
2022-11-25T02:22:56.125Z,1.50
2022-11-25T02:25:26.337Z,1.43
2022-11-25T02:27:57.636Z,1.47
2022-11-25T02:30:25.548Z,1.53
2022-11-25T02:32:54.126Z,1.40
2022-11-25T02:35:32.527Z,1.70
2022-11-25T02:38:03.626Z,1.50
2022-11-25T02:40:33.216Z,1.40
2022-11-25T02:43:01.866Z,1.30
2022-11-25T02:45:36.195Z,1.70
2022-11-25T02:48:04.307Z,1.33
2022-11-25T02:50:32.237Z,1.40
2022-11-25T02:53:00.822Z,1.60
2022-11-25T02:55:28.757Z,1.50
2022-11-25T02:57:58.207Z,1.40
2022-11-25T03:00:26.175Z,1.40
2022-11-25T03:02:54.688Z,1.40
2022-11-25T03:05:22.870Z,1.30
2022-11-25T03:07:50.902Z,1.43
2022-11-25T03:10:21.787Z,1.50
2022-11-25T03:12:49.876Z,1.43
2022-11-25T03:15:21.450Z,1.40
2022-11-25T03:17:49.349Z,1.40
2022-11-25T03:20:17.672Z,1.30
2022-11-25T03:22:45.667Z,1.20
2022-11-25T03:25:13.856Z,1.20
2022-11-25T03:27:42.123Z,1.20
2022-11-25T03:30:11.432Z,1.30
2022-11-25T03:32:41.548Z,1.40
2022-11-25T03:35:10.472Z,1.53
2022-11-25T03:37:38.447Z,1.43
2022-11-25T03:40:09.101Z,1.40
2022-11-25T03:42:37.033Z,1.50
2022-11-25T03:45:07.487Z,1.27
2022-11-25T03:47:35.530Z,1.20
2022-11-25T03:50:07.223Z,1.30
2022-11-25T03:52:35.194Z,1.40
2022-11-25T03:55:03.103Z,1.20
2022-11-25T03:57:33.424Z,1.30
2022-11-25T04:00:01.945Z,1.40
2022-11-25T04:02:34.448Z,1.57
2022-11-25T04:05:03.170Z,1.30
2022-11-25T04:07:32.545Z,1.30
2022-11-25T04:10:00.657Z,1.10
2022-11-25T04:12:50.201Z,1.40
2022-11-25T04:15:21.871Z,1.40
2022-11-25T04:17:53.725Z,1.40
2022-11-25T04:20:21.851Z,1.27
2022-11-25T04:22:58.183Z,1.30
2022-11-25T04:25:26.186Z,1.20
2022-11-25T04:27:54.119Z,1.40
2022-11-25T04:30:28.519Z,1.30
2022-11-25T04:32:56.856Z,1.30
2022-11-25T04:35:24.857Z,1.33
2022-11-25T04:37:55.274Z,1.20
2022-11-25T04:40:26.362Z,1.30
2022-11-25T04:43:10.772Z,1.40
2022-11-25T04:46:12.638Z,1.20
2022-11-25T04:48:30.493Z,1.40
2022-11-25T04:50:58.767Z,1.50
2022-11-25T04:53:27.604Z,1.40
2022-11-25T04:55:57.428Z,1.30
2022-11-25T04:58:42.669Z,1.37
2022-11-25T05:01:10.994Z,1.80
2022-11-25T05:03:48.818Z,1.80
2022-11-25T05:06:19.520Z,2.00
2022-11-25T05:08:49.476Z,1.80
2022-11-25T05:11:18.833Z,1.70
2022-11-25T05:13:47.176Z,1.67
2022-11-25T05:16:15.208Z,2.17
2022-11-25T05:18:43.264Z,2.17
2022-11-25T05:21:11.567Z,2.40
2022-11-25T05:23:42.623Z,2.60
2022-11-25T05:26:10.909Z,2.10
2022-11-25T05:28:44.001Z,2.30
2022-11-25T05:31:13.021Z,2.10
2022-11-25T05:33:41.124Z,2.37
2022-11-25T05:36:11.165Z,2.50
2022-11-25T05:38:45.362Z,2.30
2022-11-25T05:41:17.178Z,2.33
2022-11-25T05:43:48.310Z,2.60
2022-11-25T05:46:16.528Z,2.27
2022-11-25T05:48:48.851Z,2.60
2022-11-25T05:51:17.063Z,2.87
2022-11-25T05:53:45.188Z,2.33
2022-11-25T05:56:13.269Z,2.40
2022-11-25T05:59:02.883Z,2.20
2022-11-25T06:01:58.947Z,2.60
2022-11-25T06:04:27.789Z,2.47
2022-11-25T06:06:55.734Z,2.67
2022-11-25T06:09:24.103Z,2.77
2022-11-25T06:11:52.620Z,2.70
2022-11-25T06:14:21.906Z,2.50
2022-11-25T06:16:51.703Z,2.30
2022-11-25T06:19:28.183Z,2.30
2022-11-25T06:21:56.166Z,2.20
2022-11-25T06:24:25.803Z,2.30
2022-11-25T06:27:00.516Z,2.40
2022-11-25T06:29:29.821Z,2.37
2022-11-25T06:31:57.942Z,1.80
2022-11-25T06:34:41.873Z,2.20
2022-11-25T06:37:17.188Z,2.37
2022-11-25T06:39:45.096Z,2.37
2022-11-25T06:42:13.024Z,1.80
2022-11-25T06:44:42.270Z,2.20
2022-11-25T06:47:10.165Z,2.00
2022-11-25T06:49:38.062Z,2.20
2022-11-25T06:52:06.192Z,2.67
2022-11-25T06:54:34.344Z,2.63
2022-11-25T06:57:02.922Z,2.30
2022-11-25T06:59:30.828Z,2.30
2022-11-25T07:02:00.200Z,2.33
2022-11-25T07:04:28.253Z,2.17
2022-11-25T07:06:56.152Z,2.17
2022-11-25T07:09:24.934Z,2.40
2022-11-25T07:11:52.922Z,2.20
2022-11-25T07:14:20.936Z,1.97
2022-11-25T07:16:48.877Z,2.17
2022-11-25T07:19:18.784Z,2.30
2022-11-25T07:21:46.944Z,2.30
2022-11-25T07:24:15.600Z,1.80
2022-11-25T07:26:43.951Z,2.33
2022-11-25T07:29:43.972Z,2.20
2022-11-25T07:32:05.678Z,2.20
2022-11-25T07:34:38.135Z,2.20
2022-11-25T07:37:06.031Z,2.40
2022-11-25T07:39:34.334Z,2.07
2022-11-25T07:42:02.574Z,2.20
2022-11-25T07:44:30.529Z,2.40
2022-11-25T07:47:11.421Z,2.57
2022-11-25T07:49:40.791Z,2.57
2022-11-25T07:52:08.682Z,2.50
2022-11-25T07:54:36.555Z,2.30
2022-11-25T07:57:04.618Z,2.60
2022-11-25T07:59:32.525Z,2.40
2022-11-25T08:02:00.984Z,2.50
2022-11-25T08:04:30.101Z,2.20
2022-11-25T08:06:59.393Z,2.60
2022-11-25T08:09:27.285Z,2.80
2022-11-25T08:11:55.158Z,2.57
2022-11-25T08:14:23.065Z,2.70
2022-11-25T08:16:51.024Z,2.20
2022-11-25T08:19:19.270Z,2.53
2022-11-25T08:21:47.854Z,2.10
2022-11-25T08:24:18.932Z,2.90
2022-11-25T08:26:46.842Z,2.43
2022-11-25T08:29:16.218Z,2.40
2022-11-25T08:31:44.156Z,2.13
2022-11-25T08:34:17.279Z,2.60
2022-11-25T08:36:48.609Z,2.40
2022-11-25T08:42:07.053Z,2.10
2022-11-25T08:44:34.977Z,2.30
2022-11-25T08:47:02.911Z,2.43
2022-11-25T08:49:34.771Z,2.40
2022-11-25T08:52:06.905Z,2.13
2022-11-25T08:54:36.144Z,2.40
2022-11-25T08:57:04.039Z,2.30
2022-11-25T08:59:31.955Z,2.10
2022-11-25T09:01:59.905Z,2.37
2022-11-25T09:04:27.864Z,2.57
2022-11-25T09:06:55.733Z,2.50
2022-11-25T09:09:23.652Z,2.30
2022-11-25T09:11:53.083Z,2.30
2022-11-25T09:14:21.116Z,2.43
2022-11-25T09:16:49.498Z,2.40
2022-11-25T09:19:17.418Z,2.40
2022-11-25T09:21:45.362Z,2.70
2022-11-25T09:24:13.247Z,2.37
2022-11-25T09:26:42.194Z,2.33
2022-11-25T09:29:11.625Z,2.57
2022-11-25T09:31:39.724Z,2.33
2022-11-25T09:34:08.546Z,2.17
2022-11-25T09:36:36.634Z,2.03
2022-11-25T09:39:04.822Z,2.23
2022-11-25T09:41:58.852Z,2.60
2022-11-25T09:44:52.102Z,2.60
2022-11-25T09:47:23.687Z,2.47
2022-11-25T09:50:01.067Z,2.20
2022-11-25T09:52:32.765Z,2.57
2022-11-25T09:55:03.977Z,2.20
2022-11-25T09:57:42.799Z,1.80
2022-11-25T10:00:15.084Z,2.00
2022-11-25T10:02:45.765Z,2.20
2022-11-25T10:05:16.543Z,2.10
2022-11-25T10:07:45.468Z,2.33
2022-11-25T10:10:19.597Z,2.20
2022-11-25T10:12:47.590Z,2.40
2022-11-25T10:15:19.131Z,2.10
2022-11-25T10:17:49.746Z,2.13
2022-11-25T10:20:21.353Z,2.23
2022-11-25T10:22:50.130Z,1.97
2022-11-25T10:25:20.167Z,2.17
2022-11-25T10:27:50.086Z,2.17
2022-11-25T10:30:20.905Z,2.63
2022-11-25T10:32:52.224Z,2.17
2022-11-25T10:35:24.721Z,2.30
2022-11-25T10:37:55.126Z,2.00
2022-11-25T10:40:23.166Z,3.03
2022-11-25T10:42:51.094Z,2.17
2022-11-25T10:45:20.867Z,2.33
2022-11-25T10:48:02.387Z,2.60
2022-11-25T10:50:33.772Z,1.80
2022-11-25T10:53:03.491Z,1.73
2022-11-25T10:55:32.041Z,2.30
2022-11-25T10:57:59.991Z,2.40
2022-11-25T11:00:31.937Z,1.87
2022-11-25T11:03:00.807Z,2.07
2022-11-25T11:05:29.934Z,1.90
2022-11-25T11:08:17.203Z,2.00
2022-11-25T11:10:45.256Z,1.90
2022-11-25T11:13:24.844Z,1.93
2022-11-25T11:15:54.448Z,2.30
2022-11-25T11:18:25.998Z,1.93
2022-11-25T11:20:54.506Z,1.93
2022-11-25T11:23:22.414Z,2.00
2022-11-25T11:25:59.701Z,2.13
2022-11-25T11:28:32.732Z,1.87
2022-11-25T11:31:03.412Z,1.80
2022-11-25T11:33:37.400Z,1.93
2022-11-25T11:36:22.948Z,2.10
2022-11-25T11:38:54.508Z,2.43
2022-11-25T11:41:29.927Z,2.03
2022-11-25T11:44:09.416Z,2.10
2022-11-25T11:46:49.154Z,1.70
2022-11-25T11:49:30.354Z,1.80
2022-11-25T11:52:01.906Z,1.93
2022-11-25T11:54:32.344Z,1.67
2022-11-25T11:57:01.908Z,1.90
2022-11-25T11:59:56.061Z,1.90
2022-11-25T12:02:32.929Z,1.93
2022-11-25T12:05:06.056Z,1.83
2022-11-25T12:07:35.754Z,1.60
2022-11-25T12:10:06.200Z,1.70
2022-11-25T12:12:36.541Z,1.90
2022-11-25T12:15:07.694Z,1.70
2022-11-25T12:17:39.113Z,1.80
2022-11-25T12:20:08.330Z,1.70
2022-11-25T12:22:37.725Z,1.60
2022-11-25T12:25:08.865Z,1.43
2022-11-25T12:27:38.705Z,1.67
2022-11-25T12:30:07.429Z,1.60
2022-11-25T12:32:54.339Z,1.80
2022-11-25T12:35:26.626Z,1.90
2022-11-25T12:37:58.377Z,1.80
2022-11-25T12:40:28.374Z,1.60
2022-11-25T12:42:57.360Z,1.70
2022-11-25T12:45:26.225Z,1.77
2022-11-25T12:47:55.522Z,1.70
2022-11-25T12:50:26.926Z,1.60
2022-11-25T12:52:55.684Z,1.47
2022-11-25T12:55:23.987Z,1.50
2022-11-25T12:58:10.978Z,1.57
2022-11-25T13:00:54.573Z,1.67
2022-11-25T13:03:36.118Z,1.83
2022-11-25T13:06:29.427Z,1.90
2022-11-25T13:08:58.425Z,1.50
2022-11-25T13:11:37.520Z,1.67
2022-11-25T13:14:07.302Z,1.90
2022-11-25T13:16:35.978Z,1.90
2022-11-25T13:19:09.220Z,1.87
2022-11-25T13:21:37.123Z,1.90
2022-11-25T13:24:05.205Z,1.83
2022-11-25T13:26:54.041Z,1.60
2022-11-25T13:29:53.032Z,2.00
2022-11-25T13:32:27.426Z,1.80
2022-11-25T13:35:36.838Z,1.80
2022-11-25T13:38:48.473Z,1.70
2022-11-25T13:41:24.311Z,1.50
2022-11-25T13:44:02.005Z,1.73
2022-11-25T13:46:34.419Z,1.80
2022-11-25T13:49:02.624Z,1.77
2022-11-25T13:51:31.920Z,1.70
2022-11-25T13:54:01.064Z,2.10
2022-11-25T13:56:30.202Z,2.07
2022-11-25T13:59:21.501Z,1.80
2022-11-25T14:01:55.626Z,2.10
2022-11-25T14:04:34.208Z,2.10
2022-11-25T14:07:12.521Z,1.70
2022-11-25T14:09:56.615Z,1.80
2022-11-25T14:12:33.103Z,1.93
2022-11-25T14:15:11.589Z,1.80
2022-11-25T14:18:00.260Z,2.00
2022-11-25T14:20:34.244Z,2.10
2022-11-25T14:23:39.418Z,1.70
2022-11-25T14:26:21.005Z,2.00
2022-11-25T14:29:00.229Z,2.20
2022-11-25T14:31:33.627Z,2.23
2022-11-25T14:34:02.347Z,1.80
2022-11-25T14:36:31.780Z,2.00
2022-11-25T14:39:04.587Z,1.43
2022-11-25T14:41:35.243Z,2.07
2022-11-25T14:44:05.548Z,1.93
2022-11-25T14:46:33.486Z,2.00
2022-11-25T14:49:03.194Z,1.90
2022-11-25T14:51:35.267Z,1.80
2022-11-25T14:54:08.692Z,1.97
2022-11-25T14:56:37.185Z,2.10
2022-11-25T14:59:05.107Z,2.00
2022-11-25T15:01:33.616Z,2.00
2022-11-25T15:04:07.009Z,2.30
2022-11-25T15:06:36.031Z,1.83
2022-11-25T15:09:05.570Z,2.10
2022-11-25T15:11:34.346Z,1.90
2022-11-25T15:14:04.215Z,1.70
2022-11-25T15:16:33.607Z,2.27
2022-11-25T15:19:02.332Z,1.90
2022-11-25T15:21:31.396Z,2.03
2022-11-25T15:23:59.426Z,2.13
2022-11-25T15:26:29.750Z,2.00
2022-11-25T15:28:58.249Z,1.80
2022-11-25T15:31:28.269Z,2.20
2022-11-25T15:33:57.584Z,2.13
2022-11-25T15:36:25.570Z,2.20
2022-11-25T15:38:53.476Z,1.90
2022-11-25T15:41:26.553Z,2.20
2022-11-25T15:43:56.707Z,2.37
2022-11-25T15:46:24.962Z,2.00
2022-11-25T15:48:53.453Z,2.13
2022-11-25T15:51:26.963Z,2.23
2022-11-25T15:53:55.296Z,2.10
2022-11-25T15:56:24.748Z,2.00
2022-11-25T15:58:55.137Z,2.13
2022-11-25T16:01:28.927Z,2.27
2022-11-25T16:04:10.728Z,2.60
2022-11-25T16:06:38.662Z,2.23
2022-11-25T16:09:18.745Z,2.30
2022-11-25T16:11:46.759Z,2.40
2022-11-25T16:14:18.733Z,2.00
2022-11-25T16:16:48.119Z,2.20
2022-11-25T16:19:19.790Z,2.70
2022-11-25T16:21:54.049Z,2.00
2022-11-25T16:24:33.685Z,2.37
2022-11-25T16:27:02.443Z,2.17
2022-11-25T16:29:32.563Z,2.10
2022-11-25T16:32:02.332Z,2.10
2022-11-25T16:34:30.829Z,2.47
2022-11-25T16:36:58.942Z,2.33
2022-11-25T16:39:27.013Z,2.50
2022-11-25T16:41:56.980Z,2.13
2022-11-25T16:44:25.610Z,2.30
2022-11-25T16:46:54.360Z,2.33
2022-11-25T16:49:23.627Z,2.20
2022-11-25T16:51:51.762Z,2.40
2022-11-25T16:54:20.175Z,2.27
2022-11-25T16:56:49.175Z,2.00
2022-11-25T16:59:18.850Z,1.97
2022-11-25T17:01:47.041Z,2.17
2022-11-25T17:04:15.405Z,2.07
2022-11-25T17:06:50.511Z,2.40
2022-11-25T17:09:32.341Z,2.10
2022-11-25T17:12:00.465Z,1.70
2022-11-25T17:14:29.780Z,2.00
2022-11-25T17:16:57.832Z,2.20
2022-11-25T17:19:26.049Z,2.03
2022-11-25T17:21:55.352Z,2.20
2022-11-25T17:24:24.700Z,2.00
2022-11-25T17:26:55.010Z,2.00
2022-11-25T17:29:24.558Z,2.10
2022-11-25T17:31:58.187Z,2.20
2022-11-25T17:34:26.524Z,2.00
2022-11-25T17:36:55.764Z,2.00
2022-11-25T17:39:23.730Z,1.90
2022-11-25T17:41:52.184Z,1.90
2022-11-25T17:44:25.243Z,1.93
2022-11-25T17:46:53.241Z,2.10
2022-11-25T17:49:21.157Z,2.20
2022-11-25T17:51:49.084Z,2.17
2022-11-25T17:54:18.333Z,1.80
2022-11-25T17:56:51.776Z,2.10
2022-11-25T17:59:22.732Z,2.00
2022-11-25T18:01:50.665Z,2.10
2022-11-25T18:04:21.595Z,1.70
2022-11-25T18:06:49.516Z,2.33
2022-11-25T18:09:19.311Z,2.00
2022-11-25T18:11:48.746Z,1.77
2022-11-25T18:14:22.934Z,1.87
2022-11-25T18:16:50.952Z,2.07
2022-11-25T18:19:19.222Z,2.10
2022-11-25T18:21:47.234Z,2.20
2022-11-25T18:24:15.125Z,2.10
2022-11-25T18:26:45.394Z,2.00
2022-11-25T18:29:17.320Z,1.90
2022-11-25T18:31:45.877Z,2.07
2022-11-25T18:34:14.782Z,1.83
2022-11-25T18:36:42.866Z,1.93
2022-11-25T18:39:10.852Z,2.23
2022-11-25T18:41:38.747Z,1.90
2022-11-25T18:44:08.356Z,1.97
2022-11-25T18:46:38.734Z,1.97
2022-11-25T18:49:11.777Z,1.90
2022-11-25T18:51:39.733Z,2.00
2022-11-25T18:54:08.075Z,2.00
2022-11-25T18:56:36.710Z,1.90
2022-11-25T18:59:04.840Z,2.10
2022-11-25T19:01:34.341Z,2.00
2022-11-25T19:04:02.256Z,2.30
2022-11-25T19:06:30.175Z,2.07
2022-11-25T19:08:58.098Z,2.00
2022-11-25T19:11:29.700Z,2.10
2022-11-25T19:13:59.063Z,2.23
2022-11-25T19:16:27.043Z,1.97
2022-11-25T19:18:56.356Z,2.07
2022-11-25T19:21:24.275Z,2.20
2022-11-25T19:23:52.192Z,2.23
2022-11-25T19:26:21.856Z,2.00
2022-11-25T19:28:50.960Z,1.93
2022-11-25T19:31:18.984Z,1.93
2022-11-25T19:33:48.253Z,2.10
2022-11-25T19:36:22.126Z,2.23
2022-11-25T19:38:50.014Z,2.30
2022-11-25T19:41:18.029Z,1.87
2022-11-25T19:43:45.936Z,1.97
2022-11-25T19:46:29.144Z,2.20
2022-11-25T19:48:59.682Z,2.10
2022-11-25T19:51:30.899Z,2.17
2022-11-25T19:53:58.843Z,2.33
2022-11-25T19:56:27.245Z,1.97
2022-11-25T19:58:55.408Z,2.10
2022-11-25T20:01:24.497Z,2.23
2022-11-25T20:03:54.657Z,2.00
2022-11-25T20:06:22.574Z,2.13
2022-11-25T20:08:51.891Z,2.13
2022-11-25T20:11:19.959Z,2.37
2022-11-25T20:13:48.095Z,2.40
2022-11-25T20:16:17.180Z,2.30
2022-11-25T20:18:46.707Z,2.50
2022-11-25T20:21:17.999Z,3.07
2022-11-25T20:23:45.888Z,2.80
2022-11-25T20:26:18.116Z,2.73
2022-11-25T20:28:46.041Z,2.50
2022-11-25T20:31:14.662Z,2.40
2022-11-25T20:33:42.762Z,2.50
2022-11-25T20:36:14.865Z,2.87
2022-11-25T20:38:45.327Z,2.53
2022-11-25T20:41:13.204Z,2.50
2022-11-25T20:43:43.084Z,2.67
2022-11-25T20:46:15.135Z,2.60
2022-11-25T20:48:43.351Z,2.50
2022-11-25T20:51:15.863Z,2.47
2022-11-25T20:53:44.836Z,2.90
2022-11-25T20:56:13.838Z,3.03
2022-11-25T20:58:43.239Z,2.63
2022-11-25T21:01:11.272Z,2.70
2022-11-25T21:03:39.213Z,2.40
2022-11-25T21:06:13.963Z,2.90
2022-11-25T21:08:45.250Z,2.80
2022-11-25T21:11:13.126Z,2.50
2022-11-25T21:13:41.065Z,2.67
2022-11-25T21:16:10.340Z,2.50
2022-11-25T21:18:38.466Z,2.83
2022-11-25T21:21:07.157Z,2.60
2022-11-25T21:23:36.649Z,2.67
2022-11-25T21:26:06.742Z,2.70
2022-11-25T21:28:35.816Z,2.60
2022-11-25T21:31:08.409Z,2.40
2022-11-25T21:33:40.312Z,2.50
2022-11-25T21:36:12.200Z,2.47
2022-11-25T21:38:40.083Z,2.93
2022-11-25T21:41:08.005Z,2.70
2022-11-25T21:43:42.729Z,2.50
2022-11-25T21:46:19.389Z,2.10
2022-11-25T21:48:49.015Z,2.63
2022-11-25T21:51:21.561Z,2.30
2022-11-25T21:53:50.722Z,2.20
2022-11-25T21:56:20.680Z,2.43
2022-11-25T21:58:48.635Z,2.53
2022-11-25T22:01:16.565Z,2.50
2022-11-25T22:03:44.579Z,2.57
2022-11-25T22:06:17.622Z,2.30
2022-11-25T22:08:45.509Z,2.70
2022-11-25T22:11:13.869Z,2.53
2022-11-25T22:13:42.167Z,2.20
2022-11-25T22:16:12.862Z,2.60
2022-11-25T22:18:41.033Z,2.40
2022-11-25T22:21:11.752Z,2.40
2022-11-25T22:23:41.354Z,2.30
2022-11-25T22:26:09.408Z,2.33
2022-11-25T22:28:37.340Z,2.47
2022-11-25T22:31:07.537Z,2.63
2022-11-25T22:33:36.567Z,2.70
2022-11-25T22:36:04.616Z,2.23
2022-11-25T22:38:32.585Z,2.87
2022-11-25T22:41:02.807Z,2.30
2022-11-25T22:43:32.058Z,2.53
2022-11-25T22:45:59.999Z,2.27
2022-11-25T22:48:31.115Z,2.03
2022-11-25T22:50:59.050Z,2.30
2022-11-25T22:53:26.956Z,2.67
2022-11-25T22:55:56.860Z,2.20
2022-11-25T22:58:26.317Z,2.33
2022-11-25T23:00:54.352Z,2.50
2022-11-25T23:03:23.510Z,2.50
2022-11-25T23:05:51.880Z,2.20
2022-11-25T23:08:20.570Z,2.30
2022-11-25T23:10:48.632Z,2.40
2022-11-25T23:13:17.094Z,2.10
2022-11-25T23:15:50.823Z,2.20
2022-11-25T23:18:21.446Z,2.10
2022-11-25T23:20:49.577Z,2.40
2022-11-25T23:23:18.909Z,2.40
2022-11-25T23:25:46.861Z,2.40
2022-11-25T23:28:15.023Z,2.40
2022-11-25T23:30:44.575Z,2.30
2022-11-25T23:33:18.046Z,2.20
2022-11-25T23:35:45.989Z,2.20
2022-11-25T23:38:17.502Z,2.20
2022-11-25T23:40:45.415Z,2.07
2022-11-25T23:43:13.615Z,2.27
2022-11-25T23:45:44.213Z,2.47
2022-11-25T23:48:13.570Z,2.30
2022-11-25T23:50:41.453Z,2.20
2022-11-25T23:53:09.642Z,2.00
2022-11-25T23:55:38.549Z,2.37
2022-11-25T23:58:11.494Z,2.40
